createdAt,value
2022-11-04T00:02:05.498Z,10.30
2022-11-04T00:04:31.951Z,10.32
2022-11-04T00:06:58.437Z,10.28
2022-11-04T00:09:28.331Z,10.29
2022-11-04T00:12:15.633Z,10.29
2022-11-04T00:14:42.244Z,10.30
2022-11-04T00:17:22.036Z,10.28
2022-11-04T00:20:09.096Z,10.28
2022-11-04T00:22:55.483Z,10.26
2022-11-04T00:28:33.870Z,10.24
2022-11-04T00:31:22.277Z,10.25
2022-11-04T00:33:50.027Z,10.22
2022-11-04T00:36:16.836Z,10.23
2022-11-04T00:38:43.225Z,10.22
2022-11-04T00:41:28.319Z,10.20
2022-11-04T00:44:02.730Z,10.21
2022-11-04T00:46:31.003Z,10.19
2022-11-04T00:48:57.443Z,10.19
2022-11-04T00:51:24.276Z,10.20
2022-11-04T00:53:51.497Z,10.20
2022-11-04T00:56:17.994Z,10.19
2022-11-04T00:58:44.528Z,10.20
2022-11-04T01:01:13.615Z,10.19
2022-11-04T01:03:40.127Z,10.20
2022-11-04T01:06:06.734Z,10.19
2022-11-04T01:08:33.167Z,10.19
2022-11-04T01:11:05.027Z,10.18
2022-11-04T01:13:31.885Z,10.17
2022-11-04T01:15:59.942Z,10.18
2022-11-04T01:18:26.593Z,10.18
2022-11-04T01:20:53.334Z,10.19
2022-11-04T01:23:19.700Z,10.21
2022-11-04T01:25:46.416Z,10.19
2022-11-04T01:28:12.893Z,10.20
2022-11-04T01:30:39.281Z,10.19
2022-11-04T01:33:05.761Z,10.19
2022-11-04T01:35:32.373Z,10.20
2022-11-04T01:37:59.076Z,10.23
2022-11-04T01:40:25.521Z,10.23
2022-11-04T01:42:51.884Z,10.23
2022-11-04T01:45:21.126Z,10.25
2022-11-04T01:48:01.388Z,10.25
2022-11-04T01:50:30.457Z,10.26
2022-11-04T01:53:16.431Z,10.28
2022-11-04T01:55:52.451Z,10.26
2022-11-04T01:58:21.916Z,10.25
2022-11-04T02:00:48.627Z,10.24
2022-11-04T02:03:17.184Z,10.25
2022-11-04T02:05:43.954Z,10.22
2022-11-04T02:08:11.716Z,10.20
2022-11-04T02:10:41.620Z,10.20
2022-11-04T02:13:08.372Z,10.19
2022-11-04T02:16:24.102Z,10.20
2022-11-04T02:19:40.788Z,10.18
2022-11-04T02:22:36.602Z,10.17
2022-11-04T02:25:02.941Z,10.15
2022-11-04T02:28:06.818Z,10.13
2022-11-04T02:30:45.906Z,10.11
2022-11-04T02:33:54.035Z,10.06
2022-11-04T02:36:37.072Z,10.03
2022-11-04T02:39:17.063Z,9.99
2022-11-04T02:42:09.327Z,9.94
2022-11-04T02:44:43.021Z,9.91
2022-11-04T02:47:15.640Z,9.86
2022-11-04T02:49:54.698Z,9.85
2022-11-04T02:52:39.564Z,9.84
2022-11-04T02:55:18.584Z,9.84
2022-11-04T02:57:48.432Z,9.81
2022-11-04T03:00:15.539Z,9.75
2022-11-04T03:02:53.516Z,9.72
2022-11-04T03:05:28.148Z,9.67
2022-11-04T03:07:59.141Z,9.63
2022-11-04T03:10:33.619Z,9.57
2022-11-04T03:13:20.327Z,9.55
2022-11-04T03:15:51.740Z,9.49
2022-11-04T03:18:32.819Z,9.44
2022-11-04T03:21:02.812Z,9.37
2022-11-04T03:23:29.706Z,9.26
2022-11-04T03:26:07.435Z,9.23
2022-11-04T03:29:00.938Z,9.20
2022-11-04T03:31:40.322Z,9.14
2022-11-04T03:34:06.828Z,9.09
2022-11-04T03:36:33.170Z,9.04
2022-11-04T03:38:59.627Z,8.97
2022-11-04T03:41:37.656Z,8.97
2022-11-04T03:44:04.212Z,8.96
2022-11-04T03:46:30.882Z,8.93
2022-11-04T03:48:59.082Z,8.92
2022-11-04T03:51:26.192Z,8.89
2022-11-04T03:53:52.961Z,8.89
2022-11-04T03:56:56.065Z,8.88
2022-11-04T03:59:53.551Z,8.87
2022-11-04T04:02:54.061Z,8.85
2022-11-04T04:05:30.729Z,8.83
2022-11-04T04:08:06.704Z,8.82
2022-11-04T04:10:48.827Z,8.80
2022-11-04T04:13:21.035Z,8.76
2022-11-04T04:16:00.986Z,8.73
2022-11-04T04:18:42.627Z,8.71
2022-11-04T04:21:14.085Z,8.70
2022-11-04T04:24:01.225Z,8.69
2022-11-04T04:26:48.654Z,8.67
2022-11-04T04:29:17.557Z,8.67
2022-11-04T04:31:50.233Z,8.67
2022-11-04T04:34:22.674Z,8.63
2022-11-04T04:36:58.574Z,8.60
2022-11-04T04:39:49.189Z,8.60
2022-11-04T04:42:34.049Z,8.56
2022-11-04T04:45:03.696Z,8.49
2022-11-04T04:47:43.541Z,8.52
2022-11-04T04:50:13.663Z,8.51
2022-11-04T04:52:42.999Z,8.51
2022-11-04T04:55:10.073Z,8.50
2022-11-04T04:57:36.957Z,8.50
2022-11-04T05:00:04.837Z,8.52
2022-11-04T05:02:31.302Z,8.50
2022-11-04T05:04:59.168Z,8.50
2022-11-04T05:07:25.859Z,8.48
2022-11-04T05:09:52.280Z,8.47
2022-11-04T05:12:18.939Z,8.46
2022-11-04T05:14:45.322Z,8.47
2022-11-04T05:17:11.744Z,8.46
2022-11-04T05:19:38.173Z,8.44
2022-11-04T05:22:04.815Z,8.45
2022-11-04T05:24:31.193Z,8.46
2022-11-04T05:26:57.639Z,8.44
2022-11-04T05:29:24.004Z,8.43
2022-11-04T05:31:50.454Z,8.42
2022-11-04T05:34:16.846Z,8.42
2022-11-04T05:36:43.252Z,8.40
2022-11-04T05:39:12.971Z,8.39
2022-11-04T05:41:39.475Z,8.34
2022-11-04T05:44:06.950Z,8.37
2022-11-04T05:46:33.377Z,8.38
2022-11-04T05:48:59.768Z,8.36
2022-11-04T05:51:28.630Z,8.37
2022-11-04T05:53:55.045Z,8.36
2022-11-04T05:56:21.478Z,8.37
2022-11-04T05:58:47.908Z,8.37
2022-11-04T06:01:14.423Z,8.39
2022-11-04T06:03:40.963Z,8.39
2022-11-04T06:06:07.359Z,8.32
2022-11-04T06:08:33.754Z,8.35
2022-11-04T06:11:00.141Z,8.29
2022-11-04T06:13:26.488Z,8.36
2022-11-04T06:15:52.860Z,8.37
2022-11-04T06:18:19.208Z,8.38
2022-11-04T06:20:45.572Z,8.40
2022-11-04T06:23:11.936Z,8.41
2022-11-04T06:25:38.297Z,8.42
2022-11-04T06:28:04.651Z,8.39
2022-11-04T06:30:31.052Z,8.44
2022-11-04T06:32:57.642Z,8.47
2022-11-04T06:35:24.019Z,8.50
2022-11-04T06:37:50.405Z,8.52
2022-11-04T06:40:16.910Z,8.53
2022-11-04T06:42:44.900Z,8.55
2022-11-04T06:45:11.902Z,8.54
2022-11-04T06:47:39.367Z,8.51
2022-11-04T06:50:06.084Z,8.50
2022-11-04T06:52:34.846Z,8.46
2022-11-04T06:55:03.802Z,8.46
2022-11-04T06:57:30.170Z,8.43
2022-11-04T06:59:56.682Z,8.39
2022-11-04T07:02:23.132Z,8.34
2022-11-04T07:04:49.590Z,8.29
2022-11-04T07:07:15.999Z,8.24
2022-11-04T07:09:42.407Z,8.24
2022-11-04T07:12:08.869Z,8.21
2022-11-04T07:14:35.225Z,8.22
2022-11-04T07:17:02.069Z,8.21
2022-11-04T07:19:28.408Z,8.25
2022-11-04T07:21:54.825Z,8.28
2022-11-04T07:24:21.350Z,8.30
2022-11-04T07:26:47.757Z,8.36
2022-11-04T07:29:14.334Z,8.39
2022-11-04T07:31:40.703Z,8.41
2022-11-04T07:34:07.266Z,8.42
2022-11-04T07:36:33.650Z,8.43
2022-11-04T07:39:00.896Z,8.46
2022-11-04T07:41:27.291Z,8.50
2022-11-04T07:43:54.802Z,8.53
2022-11-04T07:46:21.463Z,8.57
2022-11-04T07:48:48.239Z,8.57
2022-11-04T07:51:17.282Z,8.62
2022-11-04T07:53:44.018Z,8.68
2022-11-04T07:56:12.332Z,8.70
2022-11-04T07:58:39.332Z,8.73
2022-11-04T08:01:08.444Z,8.77
2022-11-04T08:03:35.550Z,8.80
2022-11-04T08:06:04.159Z,8.81
2022-11-04T08:08:31.062Z,8.84
2022-11-04T08:11:00.830Z,8.84
2022-11-04T08:13:29.247Z,8.85
2022-11-04T08:15:56.660Z,8.85
2022-11-04T08:18:23.574Z,8.86
2022-11-04T08:20:51.417Z,8.89
2022-11-04T08:23:18.772Z,8.87
2022-11-04T08:25:45.737Z,8.91
2022-11-04T08:28:17.224Z,8.93
2022-11-04T08:30:58.349Z,8.93
2022-11-04T08:33:26.649Z,8.93
2022-11-04T08:35:54.477Z,8.96
2022-11-04T08:38:21.177Z,8.97
2022-11-04T08:40:47.670Z,8.97
2022-11-04T08:43:14.185Z,9.02
2022-11-04T08:45:43.893Z,9.05
2022-11-04T08:48:10.691Z,9.09
2022-11-04T08:50:37.669Z,9.15
2022-11-04T08:53:04.222Z,9.14
2022-11-04T08:55:32.256Z,9.17
2022-11-04T08:57:59.768Z,9.20
2022-11-04T09:00:26.789Z,9.22
2022-11-04T09:02:53.893Z,9.24
2022-11-04T09:05:20.285Z,9.26
2022-11-04T09:07:46.735Z,9.34
2022-11-04T09:10:13.124Z,9.34
2022-11-04T09:12:39.528Z,9.31
2022-11-04T09:15:06.418Z,9.31
2022-11-04T09:17:32.779Z,9.33
2022-11-04T09:19:59.180Z,9.37
2022-11-04T09:22:25.615Z,9.40
2022-11-04T09:24:52.322Z,9.34
2022-11-04T09:27:18.847Z,9.38
2022-11-04T09:29:46.086Z,9.38
2022-11-04T09:32:12.453Z,9.39
2022-11-04T09:34:38.842Z,9.45
2022-11-04T09:37:05.202Z,9.50
2022-11-04T09:39:31.586Z,9.54
2022-11-04T09:42:19.858Z,9.58
2022-11-04T09:45:19.989Z,9.59
2022-11-04T09:47:38.903Z,9.61
2022-11-04T09:50:08.318Z,9.60
2022-11-04T09:52:43.087Z,9.62
2022-11-04T09:55:09.428Z,9.64
2022-11-04T09:57:35.892Z,9.68
2022-11-04T10:00:03.904Z,9.73
2022-11-04T10:02:50.768Z,9.77
2022-11-04T10:05:44.580Z,9.83
2022-11-04T10:08:43.928Z,9.82
2022-11-04T10:11:24.885Z,9.81
2022-11-04T10:13:51.377Z,9.85
2022-11-04T10:16:27.338Z,9.84
2022-11-04T10:19:02.778Z,9.83
2022-11-04T10:21:39.632Z,9.87
2022-11-04T10:24:15.140Z,9.92
2022-11-04T10:26:46.006Z,9.95
2022-11-04T10:29:17.383Z,9.98
2022-11-04T10:31:46.450Z,10.02
2022-11-04T10:34:26.563Z,9.98
2022-11-04T10:36:54.414Z,10.06
2022-11-04T10:39:30.563Z,10.18
2022-11-04T10:41:58.197Z,10.16
2022-11-04T10:44:30.125Z,10.23
2022-11-04T10:47:08.514Z,10.26
2022-11-04T10:50:26.415Z,10.31
2022-11-04T10:52:43.206Z,10.35
2022-11-04T10:55:27.848Z,10.43
2022-11-04T10:57:57.837Z,10.49
2022-11-04T11:00:41.319Z,10.56
2022-11-04T11:03:34.232Z,10.66
2022-11-04T11:06:12.033Z,10.73
2022-11-04T11:08:39.002Z,10.78
2022-11-04T11:11:06.817Z,10.79
2022-11-04T11:13:39.841Z,10.82
2022-11-04T11:16:27.897Z,10.77
2022-11-04T11:19:26.846Z,10.76
2022-11-04T11:21:56.695Z,10.74
2022-11-04T11:24:27.686Z,10.82
2022-11-04T11:26:57.365Z,10.81
2022-11-04T11:29:27.115Z,10.88
2022-11-04T11:31:55.884Z,10.92
2022-11-04T11:34:36.998Z,10.87
2022-11-04T11:37:05.098Z,10.82
2022-11-04T11:39:34.565Z,10.84
2022-11-04T11:42:12.908Z,10.93
2022-11-04T11:44:46.752Z,10.96
2022-11-04T11:47:36.815Z,11.01
2022-11-04T11:50:19.048Z,11.00
2022-11-04T11:52:49.279Z,11.05
2022-11-04T11:55:18.276Z,11.10
2022-11-04T12:00:59.133Z,11.32
2022-11-04T12:06:33.965Z,11.45
2022-11-04T12:09:24.433Z,11.39
2022-11-04T12:12:11.055Z,11.34
2022-11-04T12:14:58.975Z,11.31
2022-11-04T12:17:47.218Z,11.33
2022-11-04T12:20:37.999Z,11.31
2022-11-04T12:23:10.670Z,11.32
2022-11-04T12:25:48.677Z,11.29
2022-11-04T12:28:29.728Z,11.26
2022-11-04T12:31:18.683Z,11.24
2022-11-04T12:33:54.096Z,11.22
2022-11-04T12:36:53.525Z,11.27
2022-11-04T12:39:34.970Z,11.32
2022-11-04T12:42:32.809Z,11.38
2022-11-04T12:45:21.171Z,11.52
2022-11-04T12:47:47.736Z,11.58
2022-11-04T12:50:39.912Z,11.62
2022-11-04T12:53:18.196Z,11.64
2022-11-04T12:56:00.430Z,11.67
2022-11-04T12:58:26.949Z,11.76
2022-11-04T13:01:02.842Z,11.78
2022-11-04T13:03:53.315Z,11.74
2022-11-04T13:06:40.383Z,11.68
2022-11-04T13:09:32.879Z,11.61
2022-11-04T13:12:07.280Z,11.52
2022-11-04T13:14:44.223Z,11.46
2022-11-04T13:17:15.949Z,11.40
2022-11-04T13:19:59.030Z,11.42
2022-11-04T13:22:31.259Z,11.42
2022-11-04T13:25:14.743Z,11.41
2022-11-04T13:27:45.850Z,11.40
2022-11-04T13:30:23.497Z,11.46
2022-11-04T13:33:01.787Z,11.50
2022-11-04T13:35:44.373Z,11.53
2022-11-04T13:38:22.983Z,11.54
2022-11-04T13:41:11.234Z,11.56
2022-11-04T13:43:40.261Z,11.54
2022-11-04T13:46:17.901Z,11.52
2022-11-04T13:49:11.579Z,11.51
2022-11-04T13:51:40.136Z,11.50
2022-11-04T13:54:24.044Z,11.49
2022-11-04T13:56:50.760Z,11.44
2022-11-04T13:59:27.013Z,11.39
2022-11-04T14:02:11.715Z,11.41
2022-11-04T14:04:40.290Z,11.40
2022-11-04T14:07:10.697Z,11.30
2022-11-04T14:09:43.089Z,11.37
2022-11-04T14:12:18.584Z,11.31
2022-11-04T14:14:52.202Z,11.27
2022-11-04T14:17:33.890Z,11.26
2022-11-04T14:20:29.757Z,11.25
2022-11-04T14:22:58.539Z,11.23
2022-11-04T14:25:32.539Z,11.21
2022-11-04T14:28:01.953Z,11.16
2022-11-04T14:30:41.583Z,11.15
2022-11-04T14:33:22.857Z,11.06
2022-11-04T14:35:53.319Z,11.01
2022-11-04T14:38:28.324Z,10.93
2022-11-04T14:41:22.786Z,10.89
2022-11-04T14:43:50.012Z,10.83
2022-11-04T14:46:44.517Z,10.77
2022-11-04T14:49:29.677Z,10.72
2022-11-04T14:51:56.472Z,10.68
2022-11-04T14:54:26.286Z,10.65
2022-11-04T14:56:53.370Z,10.64
2022-11-04T14:59:23.866Z,10.62
2022-11-04T15:01:54.071Z,10.59
2022-11-04T15:04:29.503Z,10.57
2022-11-04T15:06:58.330Z,10.54
2022-11-04T15:09:30.046Z,10.49
2022-11-04T15:12:41.138Z,10.46
2022-11-04T15:15:27.192Z,10.33
2022-11-04T15:17:58.744Z,10.09
2022-11-04T15:20:26.110Z,10.02
2022-11-04T15:22:55.536Z,9.92
2022-11-04T15:25:22.063Z,9.83
2022-11-04T15:27:48.588Z,9.76
2022-11-04T15:30:25.013Z,9.71
2022-11-04T15:33:03.348Z,9.67
2022-11-04T15:35:33.137Z,9.62
2022-11-04T15:38:01.751Z,9.59
2022-11-04T15:40:30.358Z,9.57
2022-11-04T15:42:59.595Z,9.57
2022-11-04T15:45:37.875Z,9.53
2022-11-04T15:48:22.911Z,9.46
2022-11-04T15:50:54.834Z,9.35
2022-11-04T15:53:21.235Z,9.34
2022-11-04T15:55:47.979Z,9.30
2022-11-04T15:58:15.641Z,9.32
2022-11-04T16:00:51.629Z,9.32
2022-11-04T16:03:19.766Z,9.32
2022-11-04T16:06:03.733Z,9.34
2022-11-04T16:08:31.819Z,9.34
2022-11-04T16:11:19.321Z,9.37
2022-11-04T16:13:46.716Z,9.35
2022-11-04T16:16:21.158Z,9.35
2022-11-04T16:18:57.595Z,9.33
2022-11-04T16:21:30.587Z,9.25
2022-11-04T16:23:59.596Z,9.20
2022-11-04T16:26:37.427Z,9.18
2022-11-04T16:29:09.043Z,9.16
2022-11-04T16:31:37.317Z,9.12
2022-11-04T16:34:04.033Z,9.07
2022-11-04T16:36:35.382Z,9.04
2022-11-04T16:39:04.686Z,8.96
2022-11-04T16:41:38.569Z,8.87
2022-11-04T16:44:14.722Z,8.78
2022-11-04T16:46:41.361Z,8.70
2022-11-04T16:49:09.455Z,8.64
2022-11-04T16:51:35.837Z,8.62
2022-11-04T16:54:02.274Z,8.61
2022-11-04T16:56:28.652Z,8.60
2022-11-04T16:58:55.036Z,8.59
2022-11-04T17:01:21.556Z,8.57
2022-11-04T17:03:48.040Z,8.55
2022-11-04T17:06:14.891Z,8.50
2022-11-04T17:08:41.975Z,8.46
2022-11-04T17:11:09.945Z,8.47
2022-11-04T17:13:37.199Z,8.48
2022-11-04T17:16:05.369Z,8.48
2022-11-04T17:18:33.273Z,8.45
2022-11-04T17:21:02.359Z,8.43
2022-11-04T17:23:28.768Z,8.39
2022-11-04T17:25:55.158Z,8.39
2022-11-04T17:28:21.537Z,8.37
2022-11-04T17:30:48.130Z,8.35
2022-11-04T17:33:16.828Z,8.32
2022-11-04T17:35:48.253Z,8.35
2022-11-04T17:38:15.716Z,8.36
2022-11-04T17:41:01.129Z,8.32
2022-11-04T17:43:45.962Z,8.30
2022-11-04T17:46:32.473Z,8.17
2022-11-04T17:48:59.112Z,8.12
2022-11-04T17:51:25.629Z,8.08
2022-11-04T17:53:52.018Z,8.04
2022-11-04T17:56:21.208Z,8.02
2022-11-04T17:58:48.646Z,8.02
2022-11-04T18:01:17.088Z,8.00
2022-11-04T18:03:43.752Z,7.98
2022-11-04T18:06:10.508Z,7.96
2022-11-04T18:08:37.580Z,7.96
2022-11-04T18:11:08.563Z,7.97
2022-11-04T18:13:35.743Z,7.99
2022-11-04T18:16:12.454Z,7.98
2022-11-04T18:18:39.780Z,8.00
2022-11-04T18:21:08.300Z,7.99
2022-11-04T18:23:34.922Z,7.94
2022-11-04T18:26:02.879Z,8.00
2022-11-04T18:28:29.308Z,7.99
2022-11-04T18:30:55.692Z,7.98
2022-11-04T18:33:22.077Z,7.97
2022-11-04T18:35:48.469Z,7.99
2022-11-04T18:38:14.936Z,7.99
2022-11-04T18:40:41.384Z,7.89
2022-11-04T18:43:09.275Z,7.91
2022-11-04T18:45:36.422Z,7.81
2022-11-04T18:48:03.300Z,7.77
2022-11-04T18:50:30.143Z,7.70
2022-11-04T18:52:56.566Z,7.69
2022-11-04T18:55:23.935Z,7.64
2022-11-04T18:57:54.302Z,7.64
2022-11-04T19:00:21.175Z,7.61
2022-11-04T19:02:47.660Z,7.63
2022-11-04T19:05:14.175Z,7.64
2022-11-04T19:07:41.858Z,7.64
2022-11-04T19:10:08.607Z,7.64
2022-11-04T19:12:53.532Z,7.61
2022-11-04T19:15:20.033Z,7.61
2022-11-04T19:17:46.516Z,7.62
2022-11-04T19:20:13.355Z,7.65
2022-11-04T19:22:40.990Z,7.68
2022-11-04T19:25:08.319Z,7.77
2022-11-04T19:27:34.767Z,7.81
2022-11-04T19:30:01.237Z,7.86
2022-11-04T19:32:27.800Z,7.90
2022-11-04T19:34:54.199Z,7.92
2022-11-04T19:37:20.554Z,7.97
2022-11-04T19:39:46.948Z,8.01
2022-11-04T19:42:32.098Z,7.99
2022-11-04T19:44:58.471Z,8.14
2022-11-04T19:47:24.837Z,8.22
2022-11-04T19:49:51.350Z,8.29
2022-11-04T19:52:18.489Z,8.37
2022-11-04T19:54:44.922Z,8.40
2022-11-04T19:57:11.446Z,8.39
2022-11-04T19:59:37.886Z,8.35
2022-11-04T20:02:04.382Z,8.30
2022-11-04T20:04:30.882Z,8.26
2022-11-04T20:06:57.338Z,8.24
2022-11-04T20:09:25.942Z,8.22
2022-11-04T20:12:11.009Z,8.22
2022-11-04T20:14:37.410Z,8.21
2022-11-04T20:17:06.107Z,8.22
2022-11-04T20:19:32.641Z,8.22
2022-11-04T20:21:59.038Z,8.23
2022-11-04T20:24:25.508Z,8.25
2022-11-04T20:26:51.949Z,8.22
2022-11-04T20:29:18.391Z,8.23
2022-11-04T20:31:44.918Z,8.23
2022-11-04T20:34:13.527Z,8.21
2022-11-04T20:36:40.807Z,8.17
2022-11-04T20:39:14.544Z,8.20
2022-11-04T20:41:41.767Z,8.20
2022-11-04T20:44:10.552Z,8.21
2022-11-04T20:46:37.136Z,8.21
2022-11-04T20:49:03.968Z,8.19
2022-11-04T20:51:33.122Z,8.19
2022-11-04T20:54:01.982Z,8.20
2022-11-04T20:56:33.563Z,8.23
2022-11-04T20:59:01.230Z,8.22
2022-11-04T21:01:33.380Z,8.26
2022-11-04T21:04:02.906Z,8.27
2022-11-04T21:06:30.410Z,8.30
2022-11-04T21:09:00.483Z,8.30
2022-11-04T21:11:31.683Z,8.29
2022-11-04T21:13:59.104Z,8.25
2022-11-04T21:16:25.479Z,8.20
2022-11-04T21:18:51.894Z,8.15
2022-11-04T21:21:18.340Z,8.14
2022-11-04T21:23:46.604Z,8.10
2022-11-04T21:26:21.968Z,8.04
2022-11-04T21:28:52.539Z,8.04
2022-11-04T21:31:18.891Z,8.01
2022-11-04T21:33:45.215Z,7.91
2022-11-04T21:36:14.917Z,7.92
2022-11-04T21:38:42.444Z,7.84
2022-11-04T21:41:12.960Z,7.84
2022-11-04T21:43:39.843Z,7.79
2022-11-04T21:46:14.081Z,7.76
2022-11-04T21:48:42.041Z,7.77
2022-11-04T21:51:13.990Z,7.75
2022-11-04T21:53:41.171Z,7.73
2022-11-04T21:56:17.111Z,7.67
2022-11-04T21:58:43.630Z,7.59
2022-11-04T22:01:12.313Z,7.52
2022-11-04T22:03:38.736Z,7.48
2022-11-04T22:06:07.934Z,7.43
2022-11-04T22:08:34.437Z,7.38
2022-11-04T22:11:10.332Z,7.36
2022-11-04T22:13:36.739Z,7.30
2022-11-04T22:16:19.301Z,7.30
2022-11-04T22:18:46.656Z,7.30
2022-11-04T22:21:17.059Z,7.30
2022-11-04T22:23:44.731Z,7.29
2022-11-04T22:26:17.462Z,7.30
2022-11-04T22:28:44.315Z,7.29
2022-11-04T22:31:19.876Z,7.32
2022-11-04T22:33:46.314Z,7.33
2022-11-04T22:36:13.832Z,7.31
2022-11-04T22:38:41.690Z,7.31
2022-11-04T22:41:11.231Z,7.28
2022-11-04T22:43:38.219Z,7.34
2022-11-04T22:46:16.674Z,7.34
2022-11-04T22:48:43.125Z,7.32
2022-11-04T22:51:09.882Z,7.31
2022-11-04T22:53:36.966Z,7.31
2022-11-04T22:56:05.124Z,7.29
2022-11-04T22:58:31.576Z,7.26
2022-11-04T23:01:02.034Z,7.30
2022-11-04T23:03:28.809Z,7.30
2022-11-04T23:05:57.694Z,7.31
2022-11-04T23:08:25.304Z,7.36
2022-11-04T23:11:15.623Z,7.38
2022-11-04T23:14:20.451Z,7.44
2022-11-04T23:17:08.513Z,7.47
2022-11-04T23:19:35.590Z,7.51
2022-11-04T23:22:20.594Z,7.49
2022-11-04T23:25:25.331Z,7.51
2022-11-04T23:28:12.792Z,7.47
2022-11-04T23:30:45.605Z,7.53
2022-11-04T23:33:14.932Z,7.54
2022-11-04T23:36:01.632Z,7.46
2022-11-04T23:38:31.205Z,7.61
2022-11-04T23:41:26.077Z,7.65
2022-11-04T23:43:52.609Z,7.59
2022-11-04T23:46:42.622Z,7.67
2022-11-04T23:49:31.239Z,7.67
2022-11-04T23:52:16.905Z,7.63
2022-11-04T23:55:01.608Z,7.62
2022-11-04T23:57:46.395Z,7.63
